Sanpo Maru No.5 — JL6343 — position and weather

sailwx.info

Track history (hours):
 
Tides and Currents Weather Stations Pressure Air Temp Water Temp Dewpoint Dewpoint Depression Visibility Wind Speed Wind Dir Waves Ship Positions

Sanpo Maru No.5

Last reported at 2015-Jul-29 06:10 UTC. Time now 2015-Jul-29 09:27 UTC.
Position N 33°55' E 130°28'.

Length 71 m; draft 3.5 m.

Type: Ship. MMSI: 431500283.

Date/timePositionNaut miles runAvg speedWind from/ knotsBaromVisibWave heightAir tempDewpointWater temp
2015-Jul-29 06:10N 33°55' E 130°28'710.5
2015-Jul-29 05:32N 33°49' E 130°24'1110.9
2015-Jul-29 04:33N 33°41' E 130°16'7 7.1
2015-Jul-29 03:33N 33°36' E 130°23'0 0.0
2015-Jul-29 02:33N 33°36' E 130°23'0 0.0
2015-Jul-29 01:32N 33°36' E 130°23'0 0.0
2015-Jul-29 00:32N 33°36' E 130°23'0 0.0
2015-Jul-28 23:33N 33°36' E 130°23'2 1.7
2015-Jul-28 22:32N 33°37' E 130°21'0 0.1
2015-Jul-28 21:33N 33°37' E 130°21'0 0.1
2015-Jul-28 20:33N 33°37' E 130°21'0 0.1
2015-Jul-28 19:32N 33°37' E 130°21'0 0.0
2015-Jul-28 18:32N 33°37' E 130°21'0 0.0
2015-Jul-28 17:32N 33°37' E 130°21'0 0.1
2015-Jul-28 16:32N 33°37' E 130°21'0 0.1
2015-Jul-28 13:25N 33°37' E 130°21'7 8.3
2015-Jul-28 12:33N 33°44' E 130°17'9 0.3
2015-Jul-27 11:31N 33°50' E 130°24'1111.2
2015-Jul-27 10:33N 33°41' E 130°17'7 6.8
2015-Jul-27 09:33N 33°36' E 130°23'0 0.0
2015-Jul-27 08:32N 33°36' E 130°23'0 0.0
2015-Jul-27 07:32N 33°36' E 130°23'0 0.0
2015-Jul-27 06:33N 33°36' E 130°23'0 0.1
2015-Jul-27 05:33N 33°36' E 130°23'7 7.3
2015-Jul-27 04:33N 33°41' E 130°16'1110.6
2015-Jul-27 03:33N 33°51' E 130°21'18 8.7
2015-Jul-27 01:31N 33°58' E 130°40'  
2015-Jul-24 05:17N 33°50' E 130°24'912.0
2015-Jul-24 04:32N 33°43' E 130°17'8 8.2
2015-Jul-24 03:33N 33°36' E 130°23'0 0.0
2015-Jul-24 02:33N 33°36' E 130°23'0 0.0
2015-Jul-24 01:32N 33°36' E 130°23'0 0.0
2015-Jul-24 00:32N 33°36' E 130°23'0 0.0
2015-Jul-23 23:32N 33°36' E 130°23'2 1.8
2015-Jul-23 22:33N 33°37' E 130°21'0 0.1
2015-Jul-23 21:32N 33°37' E 130°21'0 0.0
2015-Jul-23 20:32N 33°37' E 130°21'0 0.0
2015-Jul-23 19:32N 33°37' E 130°21'1 0.9
2015-Jul-23 18:33N 33°38' E 130°20'8 8.4
2015-Jul-23 17:33N 33°46' E 130°18'20 9.2
2015-Jul-23 15:22N 33°58' E 130°38'13 0.4
2015-Jul-22 06:19N 33°51' E 130°25'912.2
2015-Jul-22 05:33N 33°43' E 130°18'8 8.4
2015-Jul-22 04:33N 33°36' E 130°23'0 0.0
2015-Jul-22 03:33N 33°36' E 130°23'0 0.0
2015-Jul-22 02:33N 33°36' E 130°23'2 0.4
2015-Jul-21 22:27N 33°37' E 130°21'0 0.1
2015-Jul-21 21:27N 33°37' E 130°21'0 0.0
2015-Jul-21 20:21N 33°37' E 130°21'0 0.0
2015-Jul-21 19:33N 33°37' E 130°21'0 0.0
2015-Jul-21 18:33N 33°37' E 130°21'0 0.1
2015-Jul-21 17:33N 33°37' E 130°21'0 0.0
2015-Jul-21 16:33N 33°37' E 130°21'0 0.0
2015-Jul-21 15:24N 33°37' E 130°21'0 0.0
2015-Jul-21 14:33N 33°37' E 130°21'1 1.1
2015-Jul-21 13:33N 33°38' E 130°20'9 8.7
2015-Jul-21 12:33N 33°47' E 130°18'21 9.7
2015-Jul-21 10:20N 33°58' E 130°41'26 0.8
2015-Jul-20 03:32N 33°36' E 130°23'0 0.0
2015-Jul-20 00:32N 33°36' E 130°23'1 0.7
2015-Jul-19 23:33N 33°37' E 130°23'2 1.7
2015-Jul-19 22:31N 33°37' E 130°21'0 0.0
2015-Jul-19 21:31N 33°37' E 130°21'0 0.0
2015-Jul-19 20:31N 33°37' E 130°21'0 0.0
2015-Jul-19 19:31N 33°37' E 130°21'0 0.0
2015-Jul-19 18:31N 33°37' E 130°21'0 0.1
2015-Jul-19 17:33N 33°37' E 130°21'7 7.5
2015-Jul-19 16:33N 33°44' E 130°17'  
Track history (hours):
 
Tides and Currents Weather Stations Pressure Air Temp Water Temp Dewpoint Dewpoint Depression Visibility Wind Speed Wind Dir Waves Ship Positions

Sanpo Maru No.5

Last reported at 2015-Jul-29 06:10 UTC. Time now 2015-Jul-29 09:27 UTC.
Position N 33°55' E 130°28'.

Length 71 m; draft 3.5 m.

Type: Ship. MMSI: 431500283.

Date/timePositionNaut miles runAvg speedWind from/ knotsBaromVisibWave heightAir tempDewpointWater temp
2015-Jul-29 06:10N 33°55' E 130°28'710.5
2015-Jul-29 05:32N 33°49' E 130°24'1110.9
2015-Jul-29 04:33N 33°41' E 130°16'7 7.1
2015-Jul-29 03:33N 33°36' E 130°23'0 0.0
2015-Jul-29 02:33N 33°36' E 130°23'0 0.0
2015-Jul-29 01:32N 33°36' E 130°23'0 0.0
2015-Jul-29 00:32N 33°36' E 130°23'0 0.0
2015-Jul-28 23:33N 33°36' E 130°23'2 1.7
2015-Jul-28 22:32N 33°37' E 130°21'0 0.1
2015-Jul-28 21:33N 33°37' E 130°21'0 0.1
2015-Jul-28 20:33N 33°37' E 130°21'0 0.1
2015-Jul-28 19:32N 33°37' E 130°21'0 0.0
2015-Jul-28 18:32N 33°37' E 130°21'0 0.0
2015-Jul-28 17:32N 33°37' E 130°21'0 0.1
2015-Jul-28 16:32N 33°37' E 130°21'0 0.1
2015-Jul-28 13:25N 33°37' E 130°21'7 8.3
2015-Jul-28 12:33N 33°44' E 130°17'9 0.3
2015-Jul-27 11:31N 33°50' E 130°24'1111.2
2015-Jul-27 10:33N 33°41' E 130°17'7 6.8
2015-Jul-27 09:33N 33°36' E 130°23'0 0.0
2015-Jul-27 08:32N 33°36' E 130°23'0 0.0
2015-Jul-27 07:32N 33°36' E 130°23'0 0.0
2015-Jul-27 06:33N 33°36' E 130°23'0 0.1
2015-Jul-27 05:33N 33°36' E 130°23'7 7.3
2015-Jul-27 04:33N 33°41' E 130°16'1110.6
2015-Jul-27 03:33N 33°51' E 130°21'18 8.7
2015-Jul-27 01:31N 33°58' E 130°40'  
2015-Jul-24 05:17N 33°50' E 130°24'912.0
2015-Jul-24 04:32N 33°43' E 130°17'8 8.2
2015-Jul-24 03:33N 33°36' E 130°23'0 0.0
2015-Jul-24 02:33N 33°36' E 130°23'0 0.0
2015-Jul-24 01:32N 33°36' E 130°23'0 0.0
2015-Jul-24 00:32N 33°36' E 130°23'0 0.0
2015-Jul-23 23:32N 33°36' E 130°23'2 1.8
2015-Jul-23 22:33N 33°37' E 130°21'0 0.1
2015-Jul-23 21:32N 33°37' E 130°21'0 0.0
2015-Jul-23 20:32N 33°37' E 130°21'0 0.0
2015-Jul-23 19:32N 33°37' E 130°21'1 0.9
2015-Jul-23 18:33N 33°38' E 130°20'8 8.4
2015-Jul-23 17:33N 33°46' E 130°18'20 9.2
2015-Jul-23 15:22N 33°58' E 130°38'13 0.4
2015-Jul-22 06:19N 33°51' E 130°25'912.2
2015-Jul-22 05:33N 33°43' E 130°18'8 8.4
2015-Jul-22 04:33N 33°36' E 130°23'0 0.0
2015-Jul-22 03:33N 33°36' E 130°23'0 0.0
2015-Jul-22 02:33N 33°36' E 130°23'2 0.4
2015-Jul-21 22:27N 33°37' E 130°21'0 0.1
2015-Jul-21 21:27N 33°37' E 130°21'0 0.0
2015-Jul-21 20:21N 33°37' E 130°21'0 0.0
2015-Jul-21 19:33N 33°37' E 130°21'0 0.0
2015-Jul-21 18:33N 33°37' E 130°21'0 0.1
2015-Jul-21 17:33N 33°37' E 130°21'0 0.0
2015-Jul-21 16:33N 33°37' E 130°21'0 0.0
2015-Jul-21 15:24N 33°37' E 130°21'0 0.0
2015-Jul-21 14:33N 33°37' E 130°21'1 1.1
2015-Jul-21 13:33N 33°38' E 130°20'9 8.7
2015-Jul-21 12:33N 33°47' E 130°18'21 9.7
2015-Jul-21 10:20N 33°58' E 130°41'26 0.8
2015-Jul-20 03:32N 33°36' E 130°23'0 0.0
2015-Jul-20 00:32N 33°36' E 130°23'1 0.7
2015-Jul-19 23:33N 33°37' E 130°23'2 1.7
2015-Jul-19 22:31N 33°37' E 130°21'0 0.0
2015-Jul-19 21:31N 33°37' E 130°21'0 0.0
2015-Jul-19 20:31N 33°37' E 130°21'0 0.0
2015-Jul-19 19:31N 33°37' E 130°21'0 0.0
2015-Jul-19 18:31N 33°37' E 130°21'0 0.1
2015-Jul-19 17:33N 33°37' E 130°21'7 7.5
2015-Jul-19 16:33N 33°44' E 130°17'  

Dump ship's entire track history